sensor_id;sensor_type;location;lat;lon;timestamp;pressure;altitude;pressure_sealevel;temperature;humidity
68230;BME280;55048;52.220;5.160;2023-02-13T00:00:59;103676.06;;;8.86;71.17
68230;BME280;55048;52.220;5.160;2023-02-13T00:03:24;103690.75;;;8.98;71.09
68230;BME280;55048;52.220;5.160;2023-02-13T00:05:50;103679.63;;;8.94;70.97
68230;BME280;55048;52.220;5.160;2023-02-13T00:08:15;103570.16;;;8.23;70.99
68230;BME280;55048;52.220;5.160;2023-02-13T00:10:41;103719.03;;;9.07;71.00
68230;BME280;55048;52.220;5.160;2023-02-13T00:13:06;103720.09;;;9.14;71.16
68230;BME280;55048;52.220;5.160;2023-02-13T00:15:32;103643.22;;;8.61;71.33
68230;BME280;55048;52.220;5.160;2023-02-13T00:17:57;103699.91;;;9.04;71.36
68230;BME280;55048;52.220;5.160;2023-02-13T00:20:23;103689.75;;;8.99;71.38
68230;BME280;55048;52.220;5.160;2023-02-13T00:22:48;103673.81;;;8.91;71.08
68230;BME280;55048;52.220;5.160;2023-02-13T00:25:14;103661.13;;;8.85;71.29
68230;BME280;55048;52.220;5.160;2023-02-13T00:27:39;103690.94;;;8.97;71.43
68230;BME280;55048;52.220;5.160;2023-02-13T00:30:06;103710.41;;;9.05;71.38
68230;BME280;55048;52.220;5.160;2023-02-13T00:32:32;103673.94;;;8.89;71.25
68230;BME280;55048;52.220;5.160;2023-02-13T00:34:57;103694.94;;;9.01;71.25
68230;BME280;55048;52.220;5.160;2023-02-13T00:37:24;103653.75;;;8.71;71.19
68230;BME280;55048;52.220;5.160;2023-02-13T00:39:51;103669.94;;;8.85;71.10
68230;BME280;55048;52.220;5.160;2023-02-13T00:42:17;103696.75;;;9.00;71.32
68230;BME280;55048;52.220;5.160;2023-02-13T00:44:43;103681.13;;;8.97;71.16
68230;BME280;55048;52.220;5.160;2023-02-13T00:47:08;103657.97;;;8.81;71.40
68230;BME280;55048;52.220;5.160;2023-02-13T00:49:34;103675.66;;;8.99;71.07
68230;BME280;55048;52.220;5.160;2023-02-13T00:52:00;103698.47;;;9.09;71.15
68230;BME280;55048;52.220;5.160;2023-02-13T00:54:25;103681.13;;;8.97;70.96
68230;BME280;55048;52.220;5.160;2023-02-13T00:56:50;103655.81;;;8.85;71.15
68230;BME280;55048;52.220;5.160;2023-02-13T00:59:16;103712.13;;;9.14;71.21
68230;BME280;55048;52.220;5.160;2023-02-13T01:01:42;103694.50;;;9.13;71.55
68230;BME280;55048;52.220;5.160;2023-02-13T01:04:08;103659.38;;;8.93;71.53
68230;BME280;55048;52.220;5.160;2023-02-13T01:06:33;103655.53;;;8.88;71.62
68230;BME280;55048;52.220;5.160;2023-02-13T01:08:58;103697.97;;;9.06;71.59
68230;BME280;55048;52.220;5.160;2023-02-13T01:11:24;103669.16;;;8.93;71.58
68230;BME280;55048;52.220;5.160;2023-02-13T01:13:49;103669.44;;;8.82;71.50
68230;BME280;55048;52.220;5.160;2023-02-13T01:16:18;103634.63;;;8.67;71.56
68230;BME280;55048;52.220;5.160;2023-02-13T01:18:43;103659.66;;;8.82;71.35
68230;BME280;55048;52.220;5.160;2023-02-13T01:21:15;103679.31;;;8.98;71.43
68230;BME280;55048;52.220;5.160;2023-02-13T01:23:41;103682.44;;;8.93;71.58
68230;BME280;55048;52.220;5.160;2023-02-13T01:26:08;103685.81;;;9.03;71.34
68230;BME280;55048;52.220;5.160;2023-02-13T01:28:35;103664.50;;;8.87;71.45
68230;BME280;55048;52.220;5.160;2023-02-13T01:31:00;103696.59;;;9.02;71.64
68230;BME280;55048;52.220;5.160;2023-02-13T01:33:27;103681.13;;;8.97;71.78
68230;BME280;55048;52.220;5.160;2023-02-13T01:35:53;103625.81;;;8.58;71.68
68230;BME280;55048;52.220;5.160;2023-02-13T01:38:18;103629.44;;;8.57;71.65
68230;BME280;55048;52.220;5.160;2023-02-13T01:43:11;103687.81;;;9.01;71.74
68230;BME280;55048;52.220;5.160;2023-02-13T01:45:40;103689.47;;;9.02;71.83
68230;BME280;55048;52.220;5.160;2023-02-13T01:48:17;103657.97;;;8.81;71.71
68230;BME280;55048;52.220;5.160;2023-02-13T01:50:56;103683.97;;;8.96;71.90
68230;BME280;55048;52.220;5.160;2023-02-13T01:53:24;103689.16;;;9.05;71.86
68230;BME280;55048;52.220;5.160;2023-02-13T01:55:58;103634.88;;;8.74;71.73
68230;BME280;55048;52.220;5.160;2023-02-13T01:58:34;103684.25;;;8.92;71.67
68230;BME280;55048;52.220;5.160;2023-02-13T02:01:01;103631.25;;;8.57;71.67
68230;BME280;55048;52.220;5.160;2023-02-13T02:03:56;103675.22;;;8.85;72.38
68230;BME280;55048;52.220;5.160;2023-02-13T02:06:29;103639.75;;;8.60;72.07
68230;BME280;55048;52.220;5.160;2023-02-13T02:09:01;103675.19;;;8.77;72.27
68230;BME280;55048;52.220;5.160;2023-02-13T02:11:43;103669.44;;;8.82;72.08
68230;BME280;55048;52.220;5.160;2023-02-13T02:14:10;103571.97;;;8.22;72.27
68230;BME280;55048;52.220;5.160;2023-02-13T02:16:36;103642.22;;;8.62;72.39
68230;BME280;55048;52.220;5.160;2023-02-13T02:19:18;103672.38;;;8.79;72.41
68230;BME280;55048;52.220;5.160;2023-02-13T02:25:49;103640.56;;;8.61;72.46
68230;BME280;55048;52.220;5.160;2023-02-13T02:27:55;103676.84;;;8.78;72.36
68230;BME280;55048;52.220;5.160;2023-02-13T02:37:15;103678.97;;;8.75;72.48
68230;BME280;55048;52.220;5.160;2023-02-13T02:44:30;103667.75;;;8.81;72.23
68230;BME280;55048;52.220;5.160;2023-02-13T02:52:56;103652.75;;;8.72;72.34
68230;BME280;55048;52.220;5.160;2023-02-13T03:01:05;103662.06;;;8.76;72.63
68230;BME280;55048;52.220;5.160;2023-02-13T03:03:54;103660.94;;;8.78;72.52
68230;BME280;55048;52.220;5.160;2023-02-13T03:06:45;103662.75;;;8.78;72.27
68230;BME280;55048;52.220;5.160;2023-02-13T03:09:15;103623.63;;;8.54;72.64
68230;BME280;55048;52.220;5.160;2023-02-13T03:12:02;103619.97;;;8.55;72.75
68230;BME280;55048;52.220;5.160;2023-02-13T03:14:46;103631.41;;;8.55;72.69
68230;BME280;55048;52.220;5.160;2023-02-13T03:17:14;103657.59;;;8.76;72.84
68230;BME280;55048;52.220;5.160;2023-02-13T03:31:01;103659.28;;;8.77;72.91
68230;BME280;55048;52.220;5.160;2023-02-13T03:39:13;103641.34;;;8.53;72.84
68230;BME280;55048;52.220;5.160;2023-02-13T03:41:55;103620.97;;;8.36;72.84
68230;BME280;55048;52.220;5.160;2023-02-13T03:44:28;103637.56;;;8.56;73.12
68230;BME280;55048;52.220;5.160;2023-02-13T03:46:58;103595.72;;;8.32;73.09
68230;BME280;55048;52.220;5.160;2023-02-13T03:49:32;103628.94;;;8.54;73.08
68230;BME280;55048;52.220;5.160;2023-02-13T03:54:51;103647.59;;;8.70;72.53
68230;BME280;55048;52.220;5.160;2023-02-13T03:57:40;103655.41;;;8.72;73.00
68230;BME280;55048;52.220;5.160;2023-02-13T04:00:28;103611.66;;;8.50;72.84
68230;BME280;55048;52.220;5.160;2023-02-13T04:06:05;103632.97;;;8.66;73.01
68230;BME280;55048;52.220;5.160;2023-02-13T04:08:33;103581.66;;;8.31;73.09
68230;BME280;55048;52.220;5.160;2023-02-13T04:11:15;103639.28;;;8.65;73.16
68230;BME280;55048;52.220;5.160;2023-02-13T04:14:03;103648.97;;;8.74;73.16
68230;BME280;55048;52.220;5.160;2023-02-13T04:16:55;103654.09;;;8.76;73.33
68230;BME280;55048;52.220;5.160;2023-02-13T04:19:24;103644.66;;;8.73;72.94
68230;BME280;55048;52.220;5.160;2023-02-13T04:21:56;103647.97;;;8.75;73.14
68230;BME280;55048;52.220;5.160;2023-02-13T04:24:22;103645.00;;;8.78;73.10
68230;BME280;55048;52.220;5.160;2023-02-13T04:26:47;103621.84;;;8.62;73.08
68230;BME280;55048;52.220;5.160;2023-02-13T04:29:13;103632.38;;;8.72;73.26
68230;BME280;55048;52.220;5.160;2023-02-13T04:31:38;103630.41;;;8.74;73.04
68230;BME280;55048;52.220;5.160;2023-02-13T04:34:04;103619.19;;;8.62;73.00
68230;BME280;55048;52.220;5.160;2023-02-13T04:36:30;103640.38;;;8.80;73.24
68230;BME280;55048;52.220;5.160;2023-02-13T04:38:56;103613.06;;;8.62;73.31
68230;BME280;55048;52.220;5.160;2023-02-13T04:41:22;103647.66;;;8.78;73.20
68230;BME280;55048;52.220;5.160;2023-02-13T04:43:47;103629.72;;;8.72;73.46
68230;BME280;55048;52.220;5.160;2023-02-13T04:46:13;103615.03;;;8.60;73.34
68230;BME280;55048;52.220;5.160;2023-02-13T04:48:39;103593.03;;;8.41;73.27
68230;BME280;55048;52.220;5.160;2023-02-13T04:51:04;103589.72;;;8.39;73.60
68230;BME280;55048;52.220;5.160;2023-02-13T04:53:30;103602.72;;;8.51;73.77
68230;BME280;55048;52.220;5.160;2023-02-13T04:55:55;103638.50;;;8.73;73.60
68230;BME280;55048;52.220;5.160;2023-02-13T04:58:21;103642.00;;;8.73;73.78
68230;BME280;55048;52.220;5.160;2023-02-13T05:00:46;103631.97;;;8.67;74.01
68230;BME280;55048;52.220;5.160;2023-02-13T05:03:12;103608.22;;;8.57;74.03
68230;BME280;55048;52.220;5.160;2023-02-13T05:05:38;103593.09;;;8.50;73.97
68230;BME280;55048;52.220;5.160;2023-02-13T05:08:05;103622.06;;;8.69;73.95
68230;BME280;55048;52.220;5.160;2023-02-13T05:10:31;103613.50;;;8.57;73.96
68230;BME280;55048;52.220;5.160;2023-02-13T05:12:57;103570.72;;;8.34;73.81
68230;BME280;55048;52.220;5.160;2023-02-13T05:15:23;103602.91;;;8.57;74.14
68230;BME280;55048;52.220;5.160;2023-02-13T05:17:49;103621.91;;;8.71;74.08
68230;BME280;55048;52.220;5.160;2023-02-13T05:20:14;103616.41;;;8.64;73.89
68230;BME280;55048;52.220;5.160;2023-02-13T05:22:44;103604.25;;;8.61;74.03
68230;BME280;55048;52.220;5.160;2023-02-13T05:25:28;103605.78;;;8.64;74.06
68230;BME280;55048;52.220;5.160;2023-02-13T05:27:54;103604.59;;;8.58;74.26
68230;BME280;55048;52.220;5.160;2023-02-13T05:30:19;103594.94;;;8.57;74.14
68230;BME280;55048;52.220;5.160;2023-02-13T05:32:45;103625.09;;;8.74;74.13
68230;BME280;55048;52.220;5.160;2023-02-13T05:35:10;103553.31;;;8.32;74.28
68230;BME280;55048;52.220;5.160;2023-02-13T05:37:35;103579.97;;;8.48;73.98
68230;BME280;55048;52.220;5.160;2023-02-13T05:40:01;103617.75;;;8.68;74.45
68230;BME280;55048;52.220;5.160;2023-02-13T05:42:26;103558.91;;;8.29;74.34
68230;BME280;55048;52.220;5.160;2023-02-13T05:44:52;103629.34;;;8.67;74.41
68230;BME280;55048;52.220;5.160;2023-02-13T05:47:17;103573.16;;;8.28;74.62
68230;BME280;55048;52.220;5.160;2023-02-13T05:49:42;103560.44;;;8.31;74.78
68230;BME280;55048;52.220;5.160;2023-02-13T05:52:08;103552.78;;;8.28;74.51
68230;BME280;55048;52.220;5.160;2023-02-13T05:54:33;103604.19;;;8.53;74.62
68230;BME280;55048;52.220;5.160;2023-02-13T05:56:59;103589.25;;;8.44;74.65
68230;BME280;55048;52.220;5.160;2023-02-13T05:59:24;103619.34;;;8.61;74.62
68230;BME280;55048;52.220;5.160;2023-02-13T06:01:49;103547.41;;;8.20;74.73
68230;BME280;55048;52.220;5.160;2023-02-13T06:04:15;103581.41;;;8.42;74.78
68230;BME280;55048;52.220;5.160;2023-02-13T06:06:41;103605.88;;;8.54;74.94
68230;BME280;55048;52.220;5.160;2023-02-13T06:09:07;103358.31;;;6.80;74.42
68230;BME280;55048;52.220;5.160;2023-02-13T06:11:32;103431.63;;;7.51;74.77
68230;BME280;55048;52.220;5.160;2023-02-13T06:13:58;103602.28;;;8.37;74.78
68230;BME280;55048;52.220;5.160;2023-02-13T06:16:23;103557.56;;;8.25;74.83
68230;BME280;55048;52.220;5.160;2023-02-13T06:18:49;103374.88;;;7.00;74.76
68230;BME280;55048;52.220;5.160;2023-02-13T06:21:14;103517.84;;;8.07;74.84
68230;BME280;55048;52.220;5.160;2023-02-13T06:23:39;103510.03;;;8.05;74.62
68230;BME280;55048;52.220;5.160;2023-02-13T06:26:07;103626.06;;;8.73;74.92
68230;BME280;55048;52.220;5.160;2023-02-13T06:28:33;103598.28;;;8.59;74.89
68230;BME280;55048;52.220;5.160;2023-02-13T06:30:59;103623.09;;;8.76;74.98
68230;BME280;55048;52.220;5.160;2023-02-13T06:33:24;103631.06;;;8.76;74.84
68230;BME280;55048;52.220;5.160;2023-02-13T06:35:50;103525.78;;;8.07;74.88
68230;BME280;55048;52.220;5.160;2023-02-13T06:38:15;103627.44;;;8.77;74.99
68230;BME280;55048;52.220;5.160;2023-02-13T06:40:45;103632.56;;;8.79;75.02
68230;BME280;55048;52.220;5.160;2023-02-13T06:43:11;103604.25;;;8.61;74.92
68230;BME280;55048;52.220;5.160;2023-02-13T06:45:36;103483.72;;;7.86;74.94
68230;BME280;55048;52.220;5.160;2023-02-13T06:48:02;103637.88;;;8.79;75.11
68230;BME280;55048;52.220;5.160;2023-02-13T06:50:27;103628.09;;;8.79;74.81
68230;BME280;55048;52.220;5.160;2023-02-13T06:52:53;103568.50;;;8.39;75.02
68230;BME280;55048;52.220;5.160;2023-02-13T06:55:19;103571.16;;;8.39;74.98
68230;BME280;55048;52.220;5.160;2023-02-13T06:57:45;103541.34;;;8.28;74.80
68230;BME280;55048;52.220;5.160;2023-02-13T07:00:13;103632.75;;;8.77;75.39
68230;BME280;55048;52.220;5.160;2023-02-13T07:02:43;103629.09;;;8.78;75.32
68230;BME280;55048;52.220;5.160;2023-02-13T07:05:09;103612.38;;;8.60;75.21
68230;BME280;55048;52.220;5.160;2023-02-13T07:07:37;103521.38;;;8.15;74.99
68230;BME280;55048;52.220;5.160;2023-02-13T07:10:04;103629.28;;;8.85;75.02
68230;BME280;55048;52.220;5.160;2023-02-13T07:12:32;103603.50;;;8.69;75.20
68230;BME280;55048;52.220;5.160;2023-02-13T07:14:58;103460.13;;;7.75;75.03
68230;BME280;55048;52.220;5.160;2023-02-13T07:17:23;103616.59;;;8.71;75.24
68230;BME280;55048;52.220;5.160;2023-02-13T07:19:49;103517.41;;;7.93;75.20
68230;BME280;55048;52.220;5.160;2023-02-13T07:22:14;103636.75;;;8.81;75.47
68230;BME280;55048;52.220;5.160;2023-02-13T07:24:39;103376.63;;;7.09;75.32
68230;BME280;55048;52.220;5.160;2023-02-13T07:27:05;103332.09;;;6.86;75.31
68230;BME280;55048;52.220;5.160;2023-02-13T07:29:30;103481.53;;;7.81;75.44
68230;BME280;55048;52.220;5.160;2023-02-13T07:31:56;103603.97;;;8.64;75.48
68230;BME280;55048;52.220;5.160;2023-02-13T07:34:21;103645.06;;;8.86;75.65
68230;BME280;55048;52.220;5.160;2023-02-13T07:36:47;103548.16;;;8.30;75.65
68230;BME280;55048;52.220;5.160;2023-02-13T07:39:12;103624.25;;;8.74;75.62
68230;BME280;55048;52.220;5.160;2023-02-13T07:41:37;103655.59;;;8.96;75.39
68230;BME280;55048;52.220;5.160;2023-02-13T07:44:05;103583.84;;;8.54;75.54
68230;BME280;55048;52.220;5.160;2023-02-13T07:46:31;103609.94;;;8.66;75.44
68230;BME280;55048;52.220;5.160;2023-02-13T07:48:56;103637.06;;;8.78;75.41
68230;BME280;55048;52.220;5.160;2023-02-13T07:51:22;103631.97;;;8.67;75.70
68230;BME280;55048;52.220;5.160;2023-02-13T07:53:50;103436.28;;;7.57;75.52
68230;BME280;55048;52.220;5.160;2023-02-13T07:56:16;103427.72;;;7.63;75.30
68230;BME280;55048;52.220;5.160;2023-02-13T07:58:42;103642.56;;;8.85;75.62
68230;BME280;55048;52.220;5.160;2023-02-13T08:01:11;103522.34;;;8.14;75.37
68230;BME280;55048;52.220;5.160;2023-02-13T08:03:36;103548.63;;;8.26;75.84
68230;BME280;55048;52.220;5.160;2023-02-13T08:06:03;103663.75;;;9.03;75.71
68230;BME280;55048;52.220;5.160;2023-02-13T08:08:28;103579.81;;;8.50;75.76
68230;BME280;55048;52.220;5.160;2023-02-13T08:10:54;103656.19;;;8.90;76.00
68230;BME280;55048;52.220;5.160;2023-02-13T08:13:39;103680.38;;;9.13;75.68
68230;BME280;55048;52.220;5.160;2023-02-13T08:16:04;103667.91;;;9.05;75.61
68230;BME280;55048;52.220;5.160;2023-02-13T08:18:30;103556.56;;;8.43;75.74
68230;BME280;55048;52.220;5.160;2023-02-13T08:20:55;103681.44;;;9.20;75.71
68230;BME280;55048;52.220;5.160;2023-02-13T08:23:21;103623.97;;;8.85;75.73
68230;BME280;55048;52.220;5.160;2023-02-13T08:25:46;103412.53;;;7.65;75.25
68230;BME280;55048;52.220;5.160;2023-02-13T08:28:14;103479.69;;;8.00;75.79
68230;BME280;55048;52.220;5.160;2023-02-13T08:30:40;103672.47;;;9.21;75.77
68230;BME280;55048;52.220;5.160;2023-02-13T08:33:05;103594.66;;;8.86;75.62
68230;BME280;55048;52.220;5.160;2023-02-13T08:35:31;103611.44;;;8.95;75.49
68230;BME280;55048;52.220;5.160;2023-02-13T08:38:00;103594.31;;;8.89;75.77
68230;BME280;55048;52.220;5.160;2023-02-13T08:40:25;103593.94;;;9.10;75.30
68230;BME280;55048;52.220;5.160;2023-02-13T08:42:51;103606.28;;;9.19;75.29
68230;BME280;55048;52.220;5.160;2023-02-13T08:45:16;103580.31;;;9.05;74.86
68230;BME280;55048;52.220;5.160;2023-02-13T08:47:42;103563.34;;;8.98;74.98
68230;BME280;55048;52.220;5.160;2023-02-13T08:50:08;103555.91;;;9.02;74.92
68230;BME280;55048;52.220;5.160;2023-02-13T08:52:33;103690.50;;;9.78;74.95
68230;BME280;55048;52.220;5.160;2023-02-13T08:54:59;103665.75;;;9.77;74.90
68230;BME280;55048;52.220;5.160;2023-02-13T08:57:24;103634.16;;;9.66;74.54
68230;BME280;55048;52.220;5.160;2023-02-13T08:59:50;103641.44;;;9.64;74.55
68230;BME280;55048;52.220;5.160;2023-02-13T09:02:15;103674.91;;;9.91;74.72
68230;BME280;55048;52.220;5.160;2023-02-13T09:04:40;103650.44;;;9.71;74.96
68230;BME280;55048;52.220;5.160;2023-02-13T09:07:06;103685.38;;;9.92;74.74
68230;BME280;55048;52.220;5.160;2023-02-13T09:09:31;103679.59;;;9.89;74.87
68230;BME280;55048;52.220;5.160;2023-02-13T09:11:57;103636.31;;;9.62;74.93
68230;BME280;55048;52.220;5.160;2023-02-13T09:14:25;103509.13;;;9.01;74.75
68230;BME280;55048;52.220;5.160;2023-02-13T09:16:51;103642.38;;;9.89;74.52
68230;BME280;55048;52.220;5.160;2023-02-13T09:19:16;103668.97;;;10.05;74.85
68230;BME280;55048;52.220;5.160;2023-02-13T09:21:42;103598.31;;;9.70;74.67
68230;BME280;55048;52.220;5.160;2023-02-13T09:24:09;103624.25;;;9.84;74.70
68230;BME280;55048;52.220;5.160;2023-02-13T09:26:34;103579.69;;;9.62;75.22
68230;BME280;55048;52.220;5.160;2023-02-13T09:29:00;103671.81;;;10.20;74.92
68230;BME280;55048;52.220;5.160;2023-02-13T09:31:25;103605.78;;;9.83;74.76
68230;BME280;55048;52.220;5.160;2023-02-13T09:33:50;103637.88;;;9.97;74.80
68230;BME280;55048;52.220;5.160;2023-02-13T09:36:19;103665.50;;;10.13;74.96
68230;BME280;55048;52.220;5.160;2023-02-13T09:38:46;103642.69;;;10.02;74.66
68230;BME280;55048;52.220;5.160;2023-02-13T09:41:19;103670.53;;;10.32;74.46
68230;BME280;55048;52.220;5.160;2023-02-13T09:43:51;103666.88;;;10.41;74.06
68230;BME280;55048;52.220;5.160;2023-02-13T09:46:24;103571.91;;;9.93;73.75
68230;BME280;55048;52.220;5.160;2023-02-13T09:48:54;103618.47;;;10.21;73.33
68230;BME280;55048;52.220;5.160;2023-02-13T09:51:21;103649.75;;;10.36;73.39
68230;BME280;55048;52.220;5.160;2023-02-13T09:54:04;103672.53;;;10.46;73.27
68230;BME280;55048;52.220;5.160;2023-02-13T09:57:00;103632.47;;;10.32;73.38
68230;BME280;55048;52.220;5.160;2023-02-13T09:59:42;103659.06;;;10.56;73.14
68230;BME280;55048;52.220;5.160;2023-02-13T10:02:37;103664.72;;;10.53;72.95
68230;BME280;55048;52.220;5.160;2023-02-13T10:05:09;103657.91;;;10.59;72.98
68230;BME280;55048;52.220;5.160;2023-02-13T10:07:47;103632.13;;;10.35;72.94
68230;BME280;55048;52.220;5.160;2023-02-13T10:10:29;103524.22;;;9.75;72.75
68230;BME280;55048;52.220;5.160;2023-02-13T10:15:47;103659.22;;;10.63;72.69
68230;BME280;55048;52.220;5.160;2023-02-13T10:18:19;103525.41;;;9.89;72.21
68230;BME280;55048;52.220;5.160;2023-02-13T10:20:54;103658.38;;;10.79;72.16
68230;BME280;55048;52.220;5.160;2023-02-13T10:23:24;103532.38;;;9.98;71.82
68230;BME280;55048;52.220;5.160;2023-02-13T10:26:00;103634.44;;;10.70;71.81
68230;BME280;55048;52.220;5.160;2023-02-13T10:28:36;103660.69;;;10.90;71.74
68230;BME280;55048;52.220;5.160;2023-02-13T10:31:10;103644.72;;;10.82;71.69
68230;BME280;55048;52.220;5.160;2023-02-13T10:33:51;103659.53;;;10.92;71.37
68230;BME280;55048;52.220;5.160;2023-02-13T10:36:24;103651.69;;;10.99;71.53
68230;BME280;55048;52.220;5.160;2023-02-13T10:39:28;103618.13;;;10.73;71.15
68230;BME280;55048;52.220;5.160;2023-02-13T10:53:03;103645.00;;;11.11;70.71
68230;BME280;55048;52.220;5.160;2023-02-13T11:04:00;103518.34;;;10.61;70.18
68230;BME280;55048;52.220;5.160;2023-02-13T11:06:27;103617.13;;;11.30;70.32
68230;BME280;55048;52.220;5.160;2023-02-13T11:08:54;103539.94;;;10.75;70.10
68230;BME280;55048;52.220;5.160;2023-02-13T11:11:30;103631.91;;;11.33;69.77
68230;BME280;55048;52.220;5.160;2023-02-13T11:14:23;103596.66;;;11.22;69.75
68230;BME280;55048;52.220;5.160;2023-02-13T11:17:02;103630.63;;;11.60;69.62
68230;BME280;55048;52.220;5.160;2023-02-13T11:22:15;103616.78;;;11.64;69.36
68230;BME280;55048;52.220;5.160;2023-02-13T11:25:00;103561.97;;;11.39;68.53
68230;BME280;55048;52.220;5.160;2023-02-13T11:27:30;103617.03;;;11.78;68.83
68230;BME280;55048;52.220;5.160;2023-02-13T11:30:04;103613.44;;;11.70;68.29
68230;BME280;55048;52.220;5.160;2023-02-13T11:32:33;103551.91;;;11.49;68.63
68230;BME280;55048;52.220;5.160;2023-02-13T11:35:37;103601.44;;;11.97;68.57
68230;BME280;55048;52.220;5.160;2023-02-13T11:38:10;103605.06;;;12.05;67.55
68230;BME280;55048;52.220;5.160;2023-02-13T11:40:36;103538.53;;;11.80;67.78
68230;BME280;55048;52.220;5.160;2023-02-13T11:43:06;103580.75;;;11.99;67.33
68230;BME280;55048;52.220;5.160;2023-02-13T11:45:32;103598.13;;;12.18;67.52
68230;BME280;55048;52.220;5.160;2023-02-13T11:47:58;103495.22;;;11.55;67.29
68230;BME280;55048;52.220;5.160;2023-02-13T11:50:27;103584.78;;;12.18;66.76
68230;BME280;55048;52.220;5.160;2023-02-13T11:52:57;103586.31;;;12.13;66.06
68230;BME280;55048;52.220;5.160;2023-02-13T11:55:30;103581.28;;;12.18;66.22
68230;BME280;55048;52.220;5.160;2023-02-13T11:58:02;103583.50;;;12.29;66.45
68230;BME280;55048;52.220;5.160;2023-02-13T12:00:34;103569.69;;;12.25;66.44
68230;BME280;55048;52.220;5.160;2023-02-13T12:03:27;103564.56;;;12.39;66.35
68230;BME280;55048;52.220;5.160;2023-02-13T12:06:11;103578.66;;;12.47;65.98
68230;BME280;55048;52.220;5.160;2023-02-13T12:08:39;103348.16;;;11.14;65.60
68230;BME280;55048;52.220;5.160;2023-02-13T12:13:47;103460.03;;;11.83;65.88
68230;BME280;55048;52.220;5.160;2023-02-13T12:16:25;103570.84;;;12.61;65.94
68230;BME280;55048;52.220;5.160;2023-02-13T12:18:55;103403.19;;;11.67;65.44
68230;BME280;55048;52.220;5.160;2023-02-13T12:21:43;103565.88;;;12.58;64.44
68230;BME280;55048;52.220;5.160;2023-02-13T12:27:19;103562.56;;;12.56;64.96
68230;BME280;55048;52.220;5.160;2023-02-13T12:32:20;103555.03;;;12.74;65.21
68230;BME280;55048;52.220;5.160;2023-02-13T12:35:07;103561.00;;;12.76;64.84
68230;BME280;55048;52.220;5.160;2023-02-13T12:40:22;103560.56;;;12.87;64.33
68230;BME280;55048;52.220;5.160;2023-02-13T12:45:40;103556.13;;;12.94;64.31
68230;BME280;55048;52.220;5.160;2023-02-13T12:50:55;103546.16;;;13.03;64.20
68230;BME280;55048;52.220;5.160;2023-02-13T12:54:02;103548.38;;;12.99;63.24
68230;BME280;55048;52.220;5.160;2023-02-13T12:59:35;103521.94;;;12.90;63.59
68230;BME280;55048;52.220;5.160;2023-02-13T13:13:52;103512.66;;;12.86;63.30
68230;BME280;55048;52.220;5.160;2023-02-13T13:19:15;103518.63;;;13.02;63.48
68230;BME280;55048;52.220;5.160;2023-02-13T13:27:33;103485.84;;;12.94;62.91
68230;BME280;55048;52.220;5.160;2023-02-13T13:30:05;103507.53;;;13.20;63.13
68230;BME280;55048;52.220;5.160;2023-02-13T13:32:38;103505.41;;;13.16;63.00
68230;BME280;55048;52.220;5.160;2023-02-13T13:35:05;103463.44;;;12.95;62.83
68230;BME280;55048;52.220;5.160;2023-02-13T13:37:45;103472.13;;;12.97;62.99
68230;BME280;55048;52.220;5.160;2023-02-13T13:43:11;103491.94;;;13.24;62.86
68230;BME280;55048;52.220;5.160;2023-02-13T13:51:09;103461.19;;;13.13;63.05
68230;BME280;55048;52.220;5.160;2023-02-13T13:56:26;103459.19;;;13.15;63.35
68230;BME280;55048;52.220;5.160;2023-02-13T14:07:22;103465.78;;;13.19;63.21
68230;BME280;55048;52.220;5.160;2023-02-13T14:09:48;103430.31;;;12.89;63.11
68230;BME280;55048;52.220;5.160;2023-02-13T14:14:58;103463.25;;;13.11;63.55
68230;BME280;55048;52.220;5.160;2023-02-13T14:20:27;103399.63;;;12.64;63.17
68230;BME280;55048;52.220;5.160;2023-02-13T14:22:55;103413.09;;;12.77;63.18
68230;BME280;55048;52.220;5.160;2023-02-13T14:25:26;103408.78;;;12.76;63.45
68230;BME280;55048;52.220;5.160;2023-02-13T14:27:58;103457.38;;;13.01;63.06
68230;BME280;55048;52.220;5.160;2023-02-13T14:30:33;103415.63;;;12.79;63.23
68230;BME280;55048;52.220;5.160;2023-02-13T14:33:00;103425.59;;;12.91;63.26
68230;BME280;55048;52.220;5.160;2023-02-13T14:35:29;103376.91;;;12.53;63.33
68230;BME280;55048;52.220;5.160;2023-02-13T14:37:58;103274.97;;;11.92;63.22
68230;BME280;55048;52.220;5.160;2023-02-13T14:42:56;103447.94;;;13.05;63.14
68230;BME280;55048;52.220;5.160;2023-02-13T14:45:27;103450.63;;;13.05;63.13
68230;BME280;55048;52.220;5.160;2023-02-13T14:47:54;103458.25;;;13.08;63.01
68230;BME280;55048;52.220;5.160;2023-02-13T14:50:39;103458.47;;;13.07;62.79
68230;BME280;55048;52.220;5.160;2023-02-13T14:53:17;103451.06;;;13.09;62.97
68230;BME280;55048;52.220;5.160;2023-02-13T14:55:47;103410.84;;;12.74;62.86
68230;BME280;55048;52.220;5.160;2023-02-13T14:58:28;103354.56;;;12.39;62.81
68230;BME280;55048;52.220;5.160;2023-02-13T15:01:04;103428.41;;;12.83;62.45
68230;BME280;55048;52.220;5.160;2023-02-13T15:03:50;103452.41;;;12.98;62.78
68230;BME280;55048;52.220;5.160;2023-02-13T15:06:38;103455.53;;;13.01;62.24
68230;BME280;55048;52.220;5.160;2023-02-13T15:09:16;103451.63;;;13.04;62.11
68230;BME280;55048;52.220;5.160;2023-02-13T15:11:43;103449.63;;;13.06;62.68
68230;BME280;55048;52.220;5.160;2023-02-13T15:14:17;103354.19;;;12.42;62.31
68230;BME280;55048;52.220;5.160;2023-02-13T15:16:46;103340.78;;;12.36;62.53
68230;BME280;55048;52.220;5.160;2023-02-13T15:19:18;103431.78;;;12.92;62.58
68230;BME280;55048;52.220;5.160;2023-02-13T15:21:56;103423.50;;;12.87;62.71
68230;BME280;55048;52.220;5.160;2023-02-13T15:24:22;103444.03;;;13.01;62.63
68230;BME280;55048;52.220;5.160;2023-02-13T15:26:50;103444.94;;;12.93;63.13
68230;BME280;55048;52.220;5.160;2023-02-13T15:29:18;103396.88;;;12.57;63.40
68230;BME280;55048;52.220;5.160;2023-02-13T15:31:44;103421.25;;;12.69;63.39
68230;BME280;55048;52.220;5.160;2023-02-13T15:34:31;103443.88;;;12.88;63.83
68230;BME280;55048;52.220;5.160;2023-02-13T15:36:59;103451.97;;;12.80;64.05